Time;durP1;ratioP1;P1;durP2;ratioP2;P2;SDS_P1;SDS_P2;PMS_P1;PMS_P2;Temp;Humidity;BMP_temperature;BMP_pressure;BME280_temperature;BME280_humidity;BME280_pressure;Samples;Min_cycle;Max_cycle;Signal;HPM_P1;HPM_P2
2024/02/07 00:01:38;;;;;;;9.15;1.40;;;9.00;99.90;;;;;;5027233;28;20084;-68
2024/02/07 00:04:04;;;;;;;10.25;1.85;;;9.00;99.90;;;;;;5026478;28;20037;-68
2024/02/07 00:06:30;;;;;;;7.75;1.35;;;9.00;99.90;;;;;;5045004;28;20049;-68
2024/02/07 00:08:56;;;;;;;2.47;1.60;;;9.00;99.90;;;;;;5029534;28;20030;-68
2024/02/07 00:11:22;;;;;;;2.90;1.25;;;9.10;99.90;;;;;;5049175;28;20021;-68
2024/02/07 00:13:48;;;;;;;8.13;1.13;;;9.10;99.90;;;;;;5035857;28;20039;-68
2024/02/07 00:16:14;;;;;;;4.88;1.75;;;9.10;99.90;;;;;;5041722;28;20029;-67
2024/02/07 00:18:40;;;;;;;5.07;1.60;;;9.10;99.90;;;;;;5054620;28;20037;-68
2024/02/07 00:21:06;;;;;;;6.03;1.83;;;9.10;99.90;;;;;;5043874;28;20433;-68
2024/02/07 00:23:32;;;;;;;1.98;1.23;;;9.10;99.90;;;;;;5042851;28;20060;-69
2024/02/07 00:25:58;;;;;;;3.40;2.05;;;9.00;99.90;;;;;;5045032;28;20036;-68
2024/02/07 00:28:24;;;;;;;2.05;1.02;;;9.00;99.90;;;;;;5039220;28;20033;-68
2024/02/07 00:30:52;;;;;;;1.90;1.35;;;9.00;99.90;;;;;;5043358;28;20040;-68
2024/02/07 00:33:18;;;;;;;3.08;1.90;;;9.10;99.90;;;;;;5038386;28;20036;-68
2024/02/07 00:35:43;;;;;;;9.70;1.40;;;9.00;99.90;;;;;;5042816;28;20347;-67
2024/02/07 00:38:09;;;;;;;1.55;0.93;;;9.00;99.90;;;;;;5023866;28;20044;-68
2024/02/07 00:40:35;;;;;;;5.13;1.45;;;9.10;99.90;;;;;;5048880;28;20029;-68
2024/02/07 00:43:01;;;;;;;3.58;1.75;;;9.00;99.90;;;;;;5042016;28;20108;-69
2024/02/07 00:45:29;;;;;;;9.70;1.35;;;9.10;99.90;;;;;;5045494;28;20057;-68
2024/02/07 00:47:55;;;;;;;4.45;1.27;;;9.00;99.90;;;;;;5040206;28;20037;-68
2024/02/07 00:50:21;;;;;;;7.88;1.70;;;9.00;99.90;;;;;;5046122;28;20103;-69
2024/02/07 00:52:46;;;;;;;4.60;1.77;;;9.00;99.90;;;;;;5039247;28;20170;-69
2024/02/07 00:55:12;;;;;;;3.35;1.63;;;9.00;99.90;;;;;;5043129;28;20041;-68
2024/02/07 00:57:40;;;;;;;4.15;1.60;;;9.00;99.90;;;;;;5042453;28;20031;-68
2024/02/07 01:00:08;;;;;;;6.88;1.63;;;9.00;99.90;;;;;;5023143;28;20021;-68
2024/02/07 01:02:34;;;;;;;4.38;2.03;;;9.00;99.90;;;;;;5042521;28;20017;-68
2024/02/07 01:04:59;;;;;;;3.90;2.08;;;9.00;99.90;;;;;;5041142;28;20036;-68
2024/02/07 01:07:25;;;;;;;5.53;1.75;;;9.00;99.90;;;;;;5039913;28;20029;-68
2024/02/07 01:09:53;;;;;;;2.50;1.55;;;9.00;99.90;;;;;;5041684;28;20033;-68
2024/02/07 01:12:19;;;;;;;4.47;1.95;;;9.00;99.90;;;;;;5039271;28;20075;-68
2024/02/07 01:14:45;;;;;;;6.22;1.60;;;9.10;99.90;;;;;;5043497;28;20772;-68
2024/02/07 01:17:10;;;;;;;11.35;2.60;;;9.00;99.90;;;;;;5041798;28;20027;-68
2024/02/07 01:19:36;;;;;;;3.90;1.70;;;9.00;99.90;;;;;;5060371;28;20059;-68
2024/02/07 01:22:05;;;;;;;6.13;1.90;;;9.00;99.90;;;;;;5040138;28;20045;-68
2024/02/07 01:24:30;;;;;;;3.20;1.08;;;9.00;99.90;;;;;;5044066;28;20108;-68
2024/02/07 01:26:56;;;;;;;2.50;1.00;;;9.00;99.90;;;;;;5041844;28;20124;-69
2024/02/07 01:29:24;;;;;;;4.35;2.15;;;9.00;99.90;;;;;;5042073;28;20079;-68
2024/02/07 01:31:51;;;;;;;4.80;1.85;;;9.00;99.90;;;;;;5041472;28;20039;-68
2024/02/07 01:34:18;;;;;;;3.10;1.13;;;9.00;99.90;;;;;;5038534;28;20021;-68
2024/02/07 01:36:47;;;;;;;2.17;1.25;;;9.00;99.90;;;;;;5056960;28;20115;-68
2024/02/07 01:39:18;;;;;;;5.18;1.90;;;9.00;99.90;;;;;;5043182;28;20021;-68
2024/02/07 01:41:57;;;;;;;3.50;1.50;;;9.00;99.90;;;;;;5057304;28;20033;-68
2024/02/07 01:44:23;;;;;;;2.42;1.38;;;9.00;99.90;;;;;;5037563;28;20064;-68
2024/02/07 01:46:51;;;;;;;3.60;1.35;;;8.90;99.90;;;;;;5039612;28;20083;-68
2024/02/07 01:49:18;;;;;;;7.55;1.73;;;9.00;99.90;;;;;;5024131;28;20045;-68
2024/02/07 01:51:46;;;;;;;9.90;1.80;;;9.00;99.90;;;;;;5041213;28;20100;-69
2024/02/07 01:54:12;;;;;;;1.92;1.10;;;9.00;99.90;;;;;;5022196;28;20017;-69
2024/02/07 01:56:38;;;;;;;3.85;2.10;;;9.00;99.90;;;;;;5039305;28;20103;-68
2024/02/07 01:59:07;;;;;;;2.72;1.55;;;9.00;99.90;;;;;;5041511;28;20034;-68
2024/02/07 02:01:33;;;;;;;16.92;2.53;;;9.00;99.90;;;;;;5039068;28;20029;-68
2024/02/07 02:03:59;;;;;;;9.73;1.52;;;9.00;99.90;;;;;;5039315;28;20060;-68
2024/02/07 02:06:25;;;;;;;4.63;1.83;;;9.00;99.90;;;;;;5028859;28;20068;-68
2024/02/07 02:08:54;;;;;;;2.75;1.25;;;9.00;99.90;;;;;;5036231;28;20086;-68
2024/02/07 02:11:29;;;;;;;4.45;1.92;;;9.00;99.90;;;;;;5040173;28;20453;-69
2024/02/07 02:13:55;;;;;;;2.42;1.98;;;9.10;99.90;;;;;;5039160;28;20512;-69
2024/02/07 02:16:21;;;;;;;7.70;2.08;;;9.00;99.90;;;;;;5039159;28;20025;-68
2024/02/07 02:18:47;;;;;;;2.53;1.60;;;9.10;99.90;;;;;;5041532;28;20048;-69
2024/02/07 02:21:22;;;;;;;2.35;1.15;;;9.00;99.90;;;;;;5040093;28;20434;-68
2024/02/07 02:24:41;;;;;;;6.35;2.15;;;9.00;99.90;;;;;;5039380;28;20037;-68
2024/02/07 02:27:48;;;;;;;0.95;0.70;;;9.10;99.90;;;;;;5034185;28;20047;-68
2024/02/07 02:30:33;;;;;;;4.05;1.75;;;9.00;99.90;;;;;;5037938;28;20029;-68
2024/02/07 02:33:06;;;;;;;4.00;1.17;;;9.00;99.90;;;;;;5036570;28;20072;-68
2024/02/07 02:35:33;;;;;;;7.30;2.30;;;9.10;99.90;;;;;;5040829;28;20029;-69
2024/02/07 02:37:58;;;;;;;5.55;1.88;;;9.00;99.90;;;;;;5020532;28;20486;-68
2024/02/07 02:40:24;;;;;;;3.47;1.95;;;9.00;99.90;;;;;;5036538;28;20046;-68
2024/02/07 02:42:50;;;;;;;3.80;1.17;;;9.00;99.90;;;;;;5038941;28;20037;-69
2024/02/07 02:45:16;;;;;;;2.17;1.30;;;9.00;99.90;;;;;;5041397;28;20025;-68
2024/02/07 02:47:42;;;;;;;4.05;1.55;;;9.10;99.90;;;;;;5041434;28;20124;-68
2024/02/07 02:50:10;;;;;;;3.15;1.33;;;9.00;99.90;;;;;;5041506;28;20553;-68
2024/02/07 02:52:36;;;;;;;4.43;1.27;;;9.00;99.90;;;;;;5052901;28;20029;-69
2024/02/07 02:55:07;;;;;;;3.05;1.65;;;9.10;99.90;;;;;;5039873;28;20551;-68
2024/02/07 02:57:32;;;;;;;10.13;1.33;;;9.00;99.90;;;;;;5039180;28;20025;-67
2024/02/07 02:59:58;;;;;;;3.15;1.95;;;9.10;99.90;;;;;;5039211;28;20481;-68
2024/02/07 03:02:24;;;;;;;7.30;1.55;;;9.10;99.90;;;;;;5040612;28;20104;-68
2024/02/07 03:04:51;;;;;;;3.10;1.40;;;9.10;99.90;;;;;;5040375;28;20049;-68
2024/02/07 03:07:36;;;;;;;1.25;0.95;;;9.00;99.90;;;;;;5037216;28;20036;-69
2024/02/07 03:10:05;;;;;;;7.35;1.00;;;9.00;99.90;;;;;;5041375;28;20036;-68
2024/02/07 03:12:32;;;;;;;4.97;1.95;;;9.00;99.90;;;;;;5039699;28;20026;-68
2024/02/07 03:14:57;;;;;;;2.55;1.30;;;9.00;99.90;;;;;;5037847;28;20045;-68
2024/02/07 03:17:23;;;;;;;11.63;1.13;;;9.00;99.90;;;;;;5037495;28;20075;-68
2024/02/07 03:19:49;;;;;;;2.72;1.63;;;9.00;99.90;;;;;;5041031;28;20028;-68
2024/02/07 03:22:15;;;;;;;4.07;1.10;;;9.00;99.90;;;;;;5036257;28;20121;-68
2024/02/07 03:24:41;;;;;;;2.30;1.33;;;9.00;99.90;;;;;;5056503;28;20028;-68
2024/02/07 03:27:09;;;;;;;2.55;1.05;;;9.00;99.90;;;;;;5037300;28;20159;-68
2024/02/07 03:29:34;;;;;;;2.03;1.42;;;9.00;99.90;;;;;;5033533;28;20498;-68
2024/02/07 03:32:00;;;;;;;2.65;1.15;;;9.00;99.90;;;;;;5038630;28;20040;-69
2024/02/07 03:34:26;;;;;;;2.50;1.30;;;9.00;99.90;;;;;;5040314;28;20031;-68
2024/02/07 03:36:52;;;;;;;4.05;1.67;;;8.90;99.90;;;;;;5038185;28;20065;-68
2024/02/07 03:39:22;;;;;;;3.22;1.00;;;8.90;99.90;;;;;;5036729;28;20093;-68
2024/02/07 03:41:49;;;;;;;2.53;1.60;;;9.00;99.90;;;;;;5032679;28;20131;-68
2024/02/07 03:44:15;;;;;;;3.15;1.20;;;9.00;99.90;;;;;;5039499;28;20036;-68
2024/02/07 03:46:42;;;;;;;2.53;1.48;;;9.00;99.90;;;;;;5041799;28;20029;-69
2024/02/07 03:49:09;;;;;;;3.25;1.52;;;9.00;99.90;;;;;;5038436;28;20033;-68
2024/02/07 03:51:37;;;;;;;2.22;0.90;;;9.00;99.90;;;;;;5038421;28;20044;-69
2024/02/07 03:54:09;;;;;;;4.88;1.92;;;9.00;99.90;;;;;;5039780;28;20049;-68
2024/02/07 03:56:35;;;;;;;;;;;9.10;99.90;;;;;;5041817;28;20037;-68
2024/02/07 03:59:02;;;;;;;1.15;0.68;;;9.10;99.90;;;;;;5044675;28;20328;-68
2024/02/07 04:01:29;;;;;;;4.43;1.60;;;9.10;99.90;;;;;;5042667;28;20039;-68
2024/02/07 04:03:55;;;;;;;2.30;1.35;;;9.20;99.90;;;;;;5042206;28;20033;-68
2024/02/07 04:06:21;;;;;;;5.30;1.48;;;9.20;99.90;;;;;;5040276;28;20021;-68
2024/02/07 04:08:47;;;;;;;4.28;1.70;;;9.20;99.90;;;;;;5043673;28;20029;-68
2024/02/07 05:16:27;;;;;;;2.92;1.85;;;10.20;99.90;;;;;;5040511;28;20245;-68
2024/02/07 05:18:53;;;;;;;7.80;2.50;;;10.20;99.90;;;;;;5043890;28;20028;-68
2024/02/07 05:21:19;;;;;;;5.85;1.98;;;10.20;99.90;;;;;;5039645;28;20037;-68
2024/02/07 05:23:45;;;;;;;3.38;1.38;;;10.10;99.90;;;;;;5042272;28;20037;-67
2024/02/07 05:26:11;;;;;;;17.25;2.67;;;10.10;99.90;;;;;;5041445;28;20029;-68
2024/02/07 05:28:37;;;;;;;5.53;1.92;;;10.10;99.90;;;;;;5041179;28;20037;-68
2024/02/07 05:31:03;;;;;;;6.82;2.05;;;10.10;99.90;;;;;;5034575;28;20026;-68
2024/02/07 05:33:29;;;;;;;3.65;1.98;;;10.10;99.90;;;;;;5034280;28;20025;-68
2024/02/07 05:35:54;;;;;;;3.20;1.55;;;10.10;99.90;;;;;;5032983;28;20037;-68
2024/02/07 05:38:20;;;;;;;9.15;2.05;;;10.10;99.90;;;;;;5032089;28;20040;-69
2024/02/07 05:40:46;;;;;;;12.70;2.13;;;10.10;99.90;;;;;;5032956;28;20142;-69
2024/02/07 05:43:12;;;;;;;3.45;1.58;;;10.10;99.90;;;;;;5031566;28;20116;-68
2024/02/07 05:45:37;;;;;;;4.07;2.00;;;10.10;99.90;;;;;;5032091;28;20115;-71
2024/02/07 05:48:04;;;;;;;4.43;1.70;;;10.10;99.90;;;;;;5030651;28;20025;-70
2024/02/07 05:50:30;;;;;;;3.42;1.48;;;10.10;99.90;;;;;;5032416;28;20080;-71
2024/02/07 05:52:55;;;;;;;3.75;1.38;;;10.10;99.90;;;;;;5031584;28;20029;-71
2024/02/07 05:55:22;;;;;;;10.30;2.33;;;10.20;99.90;;;;;;5047477;28;20040;-71
2024/02/07 05:57:48;;;;;;;2.85;1.92;;;10.20;99.90;;;;;;5031928;28;20421;-68
2024/02/07 06:00:14;;;;;;;4.25;2.00;;;10.20;99.90;;;;;;5034321;28;20048;-68
2024/02/07 06:02:41;;;;;;;3.50;1.77;;;10.30;99.90;;;;;;5047148;28;20025;-68
2024/02/07 06:05:07;;;;;;;7.07;1.58;;;10.20;99.90;;;;;;5030800;28;20080;-68
2024/02/07 06:07:34;;;;;;;7.07;2.05;;;10.30;99.90;;;;;;5030296;28;20418;-68
2024/02/07 06:10:00;;;;;;;14.43;1.77;;;10.30;99.90;;;;;;5031011;28;20045;-67
2024/02/07 06:12:28;;;;;;;7.05;2.22;;;10.20;99.90;;;;;;5029764;28;20029;-68
2024/02/07 06:14:58;;;;;;;1.65;1.17;;;10.20;99.90;;;;;;5046262;28;20501;-68
2024/02/07 06:17:28;;;;;;;5.13;1.90;;;10.20;99.90;;;;;;5031168;28;20033;-68
2024/02/07 06:19:54;;;;;;;3.35;1.45;;;10.20;99.90;;;;;;5031987;28;20029;-68
2024/02/07 06:22:20;;;;;;;2.38;1.85;;;10.20;99.90;;;;;;5029506;28;20083;-68
2024/02/07 06:24:46;;;;;;;4.35;1.65;;;10.20;99.90;;;;;;5013372;28;20505;-69
2024/02/07 06:27:12;;;;;;;20.15;1.85;;;10.30;99.90;;;;;;5045711;28;20034;-68
2024/02/07 06:29:38;;;;;;;2.95;1.20;;;10.30;99.90;;;;;;5033764;28;20030;-68
2024/02/07 06:32:04;;;;;;;4.25;2.08;;;10.20;99.90;;;;;;5045772;28;20041;-68
2024/02/07 06:34:31;;;;;;;2.85;1.13;;;10.20;99.90;;;;;;5031539;28;20377;-69
2024/02/07 06:37:02;;;;;;;2.67;1.67;;;10.20;99.90;;;;;;5030769;28;20136;-68
2024/02/07 06:39:32;;;;;;;1.90;1.20;;;10.30;99.90;;;;;;5031323;28;20040;-69
2024/02/07 06:41:58;;;;;;;9.23;1.60;;;10.20;99.90;;;;;;5044983;28;20318;-68
2024/02/07 06:44:24;;;;;;;6.60;1.70;;;10.10;99.90;;;;;;5030582;28;20029;-68
2024/02/07 06:46:49;;;;;;;5.32;1.63;;;10.20;99.90;;;;;;5030352;28;20041;-68
2024/02/07 06:49:15;;;;;;;3.60;1.80;;;10.10;99.90;;;;;;5031274;28;20045;-68
2024/02/07 06:51:41;;;;;;;2.58;1.63;;;10.20;99.90;;;;;;5030457;28;20026;-68
2024/02/07 06:54:07;;;;;;;5.60;2.08;;;10.20;99.90;;;;;;5030572;28;20504;-67
2024/02/07 06:56:32;;;;;;;3.47;1.65;;;10.20;99.90;;;;;;5010747;28;20390;-67
2024/02/07 06:58:59;;;;;;;2.35;1.60;;;10.20;99.90;;;;;;5031633;28;20043;-67
2024/02/07 07:01:27;;;;;;;7.13;1.67;;;10.20;99.90;;;;;;5030853;28;20412;-68
2024/02/07 07:03:53;;;;;;;2.75;1.48;;;10.30;99.90;;;;;;5024970;28;20049;-68
2024/02/07 07:06:22;;;;;;;2.53;1.63;;;10.30;99.90;;;;;;5031081;28;20029;-68
2024/02/07 07:08:47;;;;;;;3.70;0.80;;;10.30;99.90;;;;;;5030641;28;20052;-67
2024/02/07 07:11:13;;;;;;;4.07;2.20;;;10.30;99.90;;;;;;5046016;28;20055;-68
2024/02/07 07:13:39;;;;;;;3.30;1.45;;;10.30;99.90;;;;;;5030761;28;20112;-68
2024/02/07 07:16:07;;;;;;;4.07;1.40;;;10.30;99.90;;;;;;5031684;28;20489;-60
2024/02/07 07:18:32;;;;;;;3.45;1.65;;;10.30;99.90;;;;;;5036424;28;20025;-57
2024/02/07 07:20:58;;;;;;;3.53;1.83;;;10.50;99.90;;;;;;5046035;28;20048;-55
2024/02/07 07:23:24;;;;;;;3.70;1.67;;;10.50;99.90;;;;;;5045726;28;20402;-56
2024/02/07 07:25:49;;;;;;;6.25;1.80;;;10.40;99.90;;;;;;5026425;28;20034;-54
2024/02/07 07:28:15;;;;;;;4.40;1.17;;;10.40;99.90;;;;;;5029527;28;20401;-58
2024/02/07 07:30:41;;;;;;;6.43;1.70;;;10.40;99.90;;;;;;5031375;28;20024;-57
2024/02/07 07:33:07;;;;;;;5.18;1.80;;;10.40;99.90;;;;;;5027048;28;20085;-64
2024/02/07 07:35:32;;;;;;;15.38;1.52;;;10.50;99.90;;;;;;5033875;28;20441;-71
2024/02/07 07:38:02;;;;;;;2.97;2.08;;;10.40;99.90;;;;;;5030887;28;20408;-71
2024/02/07 07:40:29;;;;;;;4.85;0.88;;;10.50;99.90;;;;;;5031778;28;20030;-71
2024/02/07 07:42:54;;;;;;;3.90;1.73;;;10.50;99.90;;;;;;5031228;28;20035;-71
2024/02/07 07:45:20;;;;;;;6.38;2.03;;;10.50;99.90;;;;;;5036199;28;20029;-71
2024/02/07 07:47:46;;;;;;;2.72;1.40;;;10.50;99.90;;;;;;5029753;28;20493;-71
2024/02/07 07:50:12;;;;;;;10.52;1.35;;;10.50;99.90;;;;;;5045963;28;20375;-71
2024/02/07 07:52:38;;;;;;;2.88;1.42;;;10.50;99.90;;;;;;5029122;28;20363;-71
2024/02/07 07:55:04;;;;;;;4.18;1.73;;;10.50;99.90;;;;;;5034365;28;20021;-71
2024/02/07 07:57:30;;;;;;;3.92;1.40;;;10.40;99.90;;;;;;5028611;28;20071;-72
2024/02/07 07:59:56;;;;;;;5.45;1.30;;;10.50;99.90;;;;;;5030742;28;20041;-68
2024/02/07 08:02:22;;;;;;;3.47;1.63;;;10.40;99.90;;;;;;5029603;28;20037;-68
2024/02/07 08:04:49;;;;;;;2.08;1.05;;;10.40;99.90;;;;;;5025095;28;20045;-68
2024/02/07 08:07:15;;;;;;;7.07;1.85;;;10.40;99.90;;;;;;5026979;28;20037;-67
2024/02/07 08:09:42;;;;;;;4.28;1.70;;;10.50;99.90;;;;;;5045399;28;20033;-68
2024/02/07 08:12:08;;;;;;;1.05;0.82;;;10.40;99.90;;;;;;5026619;28;20395;-67
2024/02/07 08:14:34;;;;;;;2.58;1.40;;;10.50;99.90;;;;;;5029028;28;20025;-67
2024/02/07 08:17:00;;;;;;;4.65;2.55;;;10.50;99.90;;;;;;5030153;28;20025;-68
2024/02/07 08:19:26;;;;;;;1.35;0.80;;;10.50;99.90;;;;;;5045881;28;20052;-67
2024/02/07 08:21:51;;;;;;;2.22;1.17;;;10.50;99.90;;;;;;5029190;28;20474;-68
2024/02/07 08:24:18;;;;;;;3.50;1.40;;;10.50;99.90;;;;;;5027803;28;20406;-68
2024/02/07 08:26:44;;;;;;;2.25;1.67;;;10.60;99.90;;;;;;5030129;28;20441;-68
2024/02/07 08:29:10;;;;;;;7.63;1.15;;;10.60;99.90;;;;;;5029773;28;20088;-68
2024/02/07 08:31:36;;;;;;;5.55;1.17;;;10.60;99.90;;;;;;5028811;28;20057;-68
2024/02/07 08:34:01;;;;;;;2.75;1.20;;;10.60;99.90;;;;;;5029425;28;20029;-68
2024/02/07 08:36:28;;;;;;;2.10;1.00;;;10.70;99.90;;;;;;5028611;28;20030;-68
2024/02/07 08:38:54;;;;;;;2.03;1.00;;;10.70;99.90;;;;;;5023810;28;20041;-67
2024/02/07 08:41:20;;;;;;;5.28;2.42;;;10.70;99.90;;;;;;5040835;28;20044;-68
2024/02/07 08:43:47;;;;;;;3.30;1.58;;;10.80;99.90;;;;;;5033063;28;20124;-68
2024/02/07 08:46:12;;;;;;;3.75;1.40;;;10.70;99.90;;;;;;5031675;28;20152;-69
2024/02/07 08:48:38;;;;;;;2.78;1.17;;;10.70;99.90;;;;;;5033651;28;20572;-69
2024/02/07 08:51:04;;;;;;;12.30;1.60;;;10.70;99.90;;;;;;5032271;28;20053;-68
2024/02/07 08:53:30;;;;;;;3.38;1.58;;;10.70;99.90;;;;;;5047296;28;20030;-69
2024/02/07 08:55:57;;;;;;;2.50;0.88;;;10.70;99.90;;;;;;5048590;28;20390;-69
2024/02/07 08:58:23;;;;;;;1.92;0.82;;;10.70;99.90;;;;;;5049177;28;20030;-68
2024/02/07 09:00:50;;;;;;;2.13;1.15;;;10.70;99.90;;;;;;5035328;28;20056;-68
2024/02/07 09:03:16;;;;;;;4.45;1.00;;;10.70;99.90;;;;;;5030386;28;20152;-68
2024/02/07 09:05:42;;;;;;;1.63;0.80;;;10.70;99.90;;;;;;5033705;28;20026;-68
2024/02/07 09:08:07;;;;;;;3.78;1.58;;;10.70;99.90;;;;;;5048181;28;20045;-68
2024/02/07 09:10:35;;;;;;;6.50;1.83;;;10.70;99.90;;;;;;5032396;28;20034;-68
2024/02/07 09:13:01;;;;;;;2.58;1.23;;;10.70;99.90;;;;;;5029803;28;20382;-68
2024/02/07 09:15:27;;;;;;;4.78;1.25;;;10.70;99.90;;;;;;5048673;28;20045;-68
2024/02/07 09:17:53;;;;;;;1.58;0.98;;;10.70;99.90;;;;;;5048026;28;20029;-68
2024/02/07 09:20:18;;;;;;;1.08;0.52;;;10.80;99.90;;;;;;5033489;28;20033;-68
2024/02/07 09:22:44;;;;;;;4.10;0.80;;;10.80;99.90;;;;;;5031825;28;20040;-69
2024/02/07 09:25:10;;;;;;;2.92;1.48;;;10.80;99.90;;;;;;5032753;28;20036;-69
2024/02/07 09:27:35;;;;;;;3.47;1.00;;;10.80;99.90;;;;;;5029825;28;20548;-69
2024/02/07 09:30:01;;;;;;;2.58;1.00;;;10.80;99.90;;;;;;5035255;28;20026;-70
2024/02/07 09:32:27;;;;;;;3.42;1.55;;;10.70;99.90;;;;;;5031658;28;20380;-69
2024/02/07 09:34:53;;;;;;;1.00;0.63;;;10.80;99.90;;;;;;5032680;28;20037;-68
2024/02/07 09:37:18;;;;;;;6.13;1.48;;;10.90;99.90;;;;;;5030533;28;20391;-68
2024/02/07 09:39:44;;;;;;;3.30;1.10;;;10.80;99.90;;;;;;5033009;28;20505;-68
2024/02/07 09:42:14;;;;;;;3.03;1.02;;;10.80;99.90;;;;;;5031414;28;20052;-68
2024/02/07 09:44:45;;;;;;;2.78;0.90;;;10.90;99.90;;;;;;5030949;28;20025;-68
2024/02/07 09:47:16;;;;;;;4.53;1.73;;;10.90;99.90;;;;;;5031583;28;20044;-68
2024/02/07 09:49:46;;;;;;;2.75;1.25;;;10.90;99.90;;;;;;5047418;28;20608;-69
2024/02/07 09:52:14;;;;;;;1.45;0.80;;;10.90;99.90;;;;;;5031048;28;20041;-69
2024/02/07 09:54:46;;;;;;;5.05;0.98;;;10.90;99.90;;;;;;5032224;28;20079;-69
2024/02/07 09:57:14;;;;;;;2.80;0.95;;;10.90;99.90;;;;;;5012635;28;20124;-69
2024/02/07 09:59:41;;;;;;;1.65;0.80;;;11.00;99.90;;;;;;5023211;28;20112;-69
2024/02/07 10:02:14;;;;;;;4.05;1.08;;;11.00;99.90;;;;;;5031419;28;20554;-72
2024/02/07 10:04:48;;;;;;;2.53;1.33;;;10.90;99.90;;;;;;5026466;28;20030;-69
2024/02/07 10:07:14;;;;;;;4.10;1.00;;;10.90;99.90;;;;;;5047152;28;20026;-69
2024/02/07 10:09:41;;;;;;;1.85;0.98;;;10.90;99.90;;;;;;5047673;28;20025;-69
2024/02/07 10:12:12;;;;;;;0.90;0.47;;;10.90;99.90;;;;;;5030622;28;20037;-69
2024/02/07 10:14:40;;;;;;;2.80;1.33;;;10.90;99.90;;;;;;5030172;28;20105;-69
2024/02/07 10:17:08;;;;;;;2.03;1.83;;;10.90;99.90;;;;;;5030888;28;20402;-69
2024/02/07 10:19:35;;;;;;;2.10;1.27;;;10.90;99.90;;;;;;5032152;28;20083;-69
2024/02/07 10:22:12;;;;;;;4.05;1.33;;;11.00;99.90;;;;;;5046500;28;20402;-67
2024/02/07 10:24:38;;;;;;;0.80;0.52;;;11.00;99.90;;;;;;5030219;28;20036;-68
2024/02/07 10:27:04;;;;;;;2.90;1.33;;;11.00;99.90;;;;;;5046786;28;20069;-68
2024/02/07 10:29:30;;;;;;;0.68;0.60;;;11.00;99.90;;;;;;5031722;28;20420;-68
2024/02/07 10:31:55;;;;;;;1.08;0.80;;;11.00;99.90;;;;;;5030123;28;20052;-68
2024/02/07 10:34:22;;;;;;;4.03;0.93;;;11.00;99.90;;;;;;5031112;28;20034;-68
2024/02/07 10:36:57;;;;;;;4.78;1.23;;;11.10;99.90;;;;;;5046208;28;20029;-68
2024/02/07 10:39:23;;;;;;;0.63;0.30;;;11.00;99.90;;;;;;5030365;28;20151;-68
2024/02/07 10:41:48;;;;;;;3.30;0.95;;;11.00;99.90;;;;;;5030707;28;20037;-68
2024/02/07 10:44:14;;;;;;;2.00;1.02;;;11.10;99.90;;;;;;5030945;28;20072;-68
2024/02/07 10:46:42;;;;;;;5.57;0.82;;;11.00;99.90;;;;;;5046676;28;20064;-68
2024/02/07 10:49:12;;;;;;;0.95;0.80;;;11.00;99.90;;;;;;5030614;28;20038;-68
2024/02/07 10:51:40;;;;;;;1.38;0.82;;;11.00;99.90;;;;;;5045340;28;20025;-68
2024/02/07 10:54:07;;;;;;;0.75;0.73;;;11.10;99.90;;;;;;5029604;28;20026;-68
2024/02/07 10:56:41;;;;;;;0.98;0.63;;;11.00;99.90;;;;;;5011306;28;20040;-68
2024/02/07 10:59:11;;;;;;;3.55;0.43;;;11.10;99.90;;;;;;5048225;28;20044;-68
2024/02/07 11:01:38;;;;;;;1.02;0.65;;;11.00;99.90;;;;;;5029152;28;20025;-68
2024/02/07 11:04:04;;;;;;;1.33;0.50;;;11.00;99.90;;;;;;5045286;28;20060;-68
2024/02/07 11:06:32;;;;;;;1.55;0.70;;;11.10;99.90;;;;;;5030277;28;20021;-67
2024/02/07 11:08:59;;;;;;;1.90;0.80;;;11.00;99.90;;;;;;5046141;28;20116;-67
2024/02/07 11:11:26;;;;;;;1.67;0.90;;;11.00;99.90;;;;;;5029391;28;20033;-67
2024/02/07 11:13:52;;;;;;;1.15;0.60;;;11.10;99.90;;;;;;5029049;28;20044;-67
2024/02/07 11:16:22;;;;;;;0.80;0.52;;;11.00;99.90;;;;;;5028590;28;20025;-68
2024/02/07 11:18:48;;;;;;;2.95;0.73;;;11.10;99.90;;;;;;5046089;28;20092;-68
2024/02/07 11:21:34;;;;;;;1.55;0.57;;;11.00;99.90;;;;;;5029558;28;20037;-66
2024/02/07 11:24:02;;;;;;;1.83;0.70;;;11.10;99.90;;;;;;5028973;28;20029;-67
2024/02/07 11:26:28;;;;;;;0.77;0.60;;;11.10;99.90;;;;;;5045361;28;20037;-66
2024/02/07 11:28:56;;;;;;;3.15;1.10;;;11.10;99.90;;;;;;5046355;28;20033;-67
2024/02/07 11:31:23;;;;;;;2.90;0.65;;;11.10;99.90;;;;;;5030523;28;20111;-67
2024/02/07 11:33:52;;;;;;;3.47;0.93;;;11.00;99.90;;;;;;5030433;28;20026;-67
2024/02/07 11:36:18;;;;;;;0.50;0.40;;;11.00;99.90;;;;;;5045303;28;20087;-67
2024/02/07 11:38:54;;;;;;;0.65;0.47;;;11.10;99.90;;;;;;5031206;28;20025;-68
2024/02/07 11:41:20;;;;;;;2.08;0.50;;;11.00;99.90;;;;;;5030641;28;20033;-68
2024/02/07 11:43:49;;;;;;;1.17;0.55;;;11.00;99.90;;;;;;5030201;28;20466;-66
2024/02/07 11:46:17;;;;;;;2.22;0.55;;;11.10;99.90;;;;;;5044724;28;20033;-66
2024/02/07 11:48:48;;;;;;;2.42;0.85;;;11.00;99.90;;;;;;5038282;28;20021;-67
2024/02/07 11:51:16;;;;;;;1.42;1.20;;;11.00;99.90;;;;;;5030702;28;20374;-67
2024/02/07 11:53:42;;;;;;;1.45;0.80;;;11.00;99.90;;;;;;5030258;28;20045;-67
2024/02/07 11:56:21;;;;;;;2.63;0.60;;;11.00;99.90;;;;;;5027805;28;20104;-66
2024/02/07 11:58:52;;;;;;;1.00;0.55;;;11.00;99.90;;;;;;5023705;28;20379;-67
2024/02/07 12:01:18;;;;;;;;;;;11.00;99.90;;;;;;5031467;28;20034;-67
2024/02/07 12:03:43;;;;;;;3.08;0.70;;;11.00;99.90;;;;;;5028864;28;19959;-67
2024/02/07 12:06:12;;;;;;;0.55;0.47;;;11.00;99.90;;;;;;5029960;28;20030;-66
2024/02/07 12:08:39;;;;;;;2.88;1.33;;;10.90;99.90;;;;;;5029361;28;20060;-66
2024/02/07 12:11:06;;;;;;;0.90;0.50;;;10.90;99.90;;;;;;5044896;28;20025;-66
2024/02/07 12:13:33;;;;;;;0.70;0.55;;;10.90;99.90;;;;;;5027269;28;20018;-66
2024/02/07 12:16:04;;;;;;;1.20;0.63;;;11.00;99.90;;;;;;5048615;28;20021;-66
2024/02/07 12:18:31;;;;;;;2.70;1.33;;;10.90;99.90;;;;;;5034572;28;20489;-66
2024/02/07 12:21:02;;;;;;;2.42;1.25;;;10.90;99.90;;;;;;5048822;28;20083;-66
2024/02/07 12:23:32;;;;;;;3.07;1.20;;;10.90;99.90;;;;;;5031928;28;20047;-66
2024/02/07 12:26:00;;;;;;;3.75;0.90;;;10.80;99.90;;;;;;5033327;28;20116;-66
2024/02/07 12:28:27;;;;;;;4.03;0.80;;;10.90;99.90;;;;;;5034064;28;20044;-66
2024/02/07 12:30:57;;;;;;;2.95;1.42;;;10.90;99.90;;;;;;5051346;28;20032;-66
2024/02/07 12:33:24;;;;;;;3.30;1.03;;;10.80;99.90;;;;;;5029771;28;20037;-66
2024/02/07 12:35:59;;;;;;;0.70;0.30;;;10.80;99.90;;;;;;5049781;28;20105;-68
2024/02/07 12:38:26;;;;;;;5.20;0.82;;;10.70;99.90;;;;;;5032818;28;20041;-67
2024/02/07 12:40:54;;;;;;;3.13;1.35;;;10.70;99.90;;;;;;5049367;28;20032;-67
2024/02/07 12:43:24;;;;;;;5.05;0.60;;;10.70;99.90;;;;;;5038532;28;20030;-70
2024/02/07 12:45:56;;;;;;;1.48;0.98;;;10.60;99.90;;;;;;5034545;28;20033;-68
2024/02/07 12:48:23;;;;;;;1.33;0.65;;;10.70;99.90;;;;;;5049150;28;20064;-68
2024/02/07 12:50:49;;;;;;;8.43;1.08;;;10.70;99.90;;;;;;5038762;28;20024;-66
2024/02/07 12:53:17;;;;;;;1.30;0.88;;;10.70;99.90;;;;;;5046285;28;20108;-67
2024/02/07 12:55:49;;;;;;;0.63;0.47;;;10.70;99.90;;;;;;5032125;28;20033;-67
2024/02/07 12:58:16;;;;;;;1.05;0.60;;;10.70;99.90;;;;;;5032655;28;20029;-67
2024/02/07 13:00:42;;;;;;;1.27;0.52;;;10.70;99.90;;;;;;5051287;28;20049;-67
2024/02/07 13:03:09;;;;;;;3.90;1.08;;;10.70;99.90;;;;;;5031045;28;20109;-67
2024/02/07 13:05:35;;;;;;;1.50;0.52;;;10.70;99.90;;;;;;5031677;28;20029;-70
2024/02/07 13:08:01;;;;;;;1.92;0.90;;;10.70;99.90;;;;;;5032581;28;20030;-67
2024/02/07 13:10:26;;;;;;;0.88;0.70;;;10.70;99.90;;;;;;5033248;28;20485;-67
2024/02/07 13:12:52;;;;;;;8.05;1.25;;;10.70;99.90;;;;;;5034495;28;20033;-67
2024/02/07 13:15:19;;;;;;;2.85;1.00;;;10.70;99.90;;;;;;5032398;28;20033;-67
2024/02/07 13:17:48;;;;;;;1.95;0.68;;;10.70;99.90;;;;;;5032431;28;20020;-67
2024/02/07 13:20:15;;;;;;;2.95;0.85;;;10.70;99.90;;;;;;5031352;28;20035;-67
2024/02/07 13:22:41;;;;;;;4.90;1.33;;;10.70;99.90;;;;;;5023679;28;20053;-67
2024/02/07 13:25:09;;;;;;;2.88;0.80;;;10.70;99.90;;;;;;5029498;28;20134;-67
2024/02/07 13:27:37;;;;;;;3.97;0.98;;;10.80;99.90;;;;;;5047790;28;20152;-67
2024/02/07 13:30:07;;;;;;;2.28;0.73;;;10.70;99.90;;;;;;5044195;28;20122;-67
2024/02/07 13:32:33;;;;;;;6.93;1.15;;;10.80;99.90;;;;;;5047513;28;20393;-66
2024/02/07 13:35:00;;;;;;;3.55;1.08;;;10.80;99.90;;;;;;5044969;28;20110;-67
2024/02/07 13:37:26;;;;;;;0.43;0.38;;;10.80;99.90;;;;;;5031541;28;20033;-67
2024/02/07 13:39:51;;;;;;;1.48;0.80;;;10.80;99.90;;;;;;5046964;28;20044;-66
2024/02/07 13:42:18;;;;;;;1.73;0.60;;;10.70;99.90;;;;;;5033294;28;20052;-67
2024/02/07 13:44:43;;;;;;;1.45;0.68;;;10.80;99.90;;;;;;5045586;28;20037;-67
2024/02/07 13:47:09;;;;;;;3.03;1.05;;;10.70;99.90;;;;;;5045764;28;20025;-66
2024/02/07 13:49:35;;;;;;;3.70;1.48;;;10.80;99.90;;;;;;5041305;28;20029;-67
2024/02/07 13:52:02;;;;;;;1.13;0.98;;;10.80;99.90;;;;;;5041874;28;20024;-67
2024/02/07 13:54:29;;;;;;;0.98;0.52;;;10.80;99.90;;;;;;5033797;28;20030;-67
2024/02/07 13:56:55;;;;;;;4.70;0.80;;;10.80;99.90;;;;;;5032812;28;20032;-67